sensor_id;sensor_type;location;lat;lon;timestamp;pressure;altitude;pressure_sealevel;temperature;humidity
54144;BME280;40050;47.324;18.792;2022-12-29T00:00:40;1010.28;;;1.70;70.98
54144;BME280;40050;47.324;18.792;2022-12-29T00:02:43;1010.29;;;1.67;70.96
54144;BME280;40050;47.324;18.792;2022-12-29T00:04:45;1010.17;;;1.57;70.92
54144;BME280;40050;47.324;18.792;2022-12-29T00:06:47;1010.24;;;1.58;70.90
54144;BME280;40050;47.324;18.792;2022-12-29T00:08:50;1010.30;;;1.59;70.93
54144;BME280;40050;47.324;18.792;2022-12-29T00:10:53;1010.23;;;1.55;70.95
54144;BME280;40050;47.324;18.792;2022-12-29T00:12:56;1010.30;;;1.56;71.01
54144;BME280;40050;47.324;18.792;2022-12-29T00:14:58;1010.24;;;1.50;71.02
54144;BME280;40050;47.324;18.792;2022-12-29T00:17:00;1010.27;;;1.52;71.05
54144;BME280;40050;47.324;18.792;2022-12-29T00:19:03;1010.28;;;1.51;71.01
54144;BME280;40050;47.324;18.792;2022-12-29T00:21:07;1010.28;;;1.48;70.94
54144;BME280;40050;47.324;18.792;2022-12-29T00:23:09;1010.19;;;1.41;70.96
54144;BME280;40050;47.324;18.792;2022-12-29T00:25:12;1010.31;;;1.45;71.04
54144;BME280;40050;47.324;18.792;2022-12-29T00:27:15;1010.22;;;1.45;71.09
54144;BME280;40050;47.324;18.792;2022-12-29T00:29:17;1010.22;;;1.43;71.15
54144;BME280;40050;47.324;18.792;2022-12-29T00:31:19;1010.20;;;1.40;71.19
54144;BME280;40050;47.324;18.792;2022-12-29T00:33:25;1010.19;;;1.39;71.28
54144;BME280;40050;47.324;18.792;2022-12-29T00:35:28;1010.19;;;1.41;71.30
54144;BME280;40050;47.324;18.792;2022-12-29T00:37:31;1010.20;;;1.39;71.34
54144;BME280;40050;47.324;18.792;2022-12-29T00:39:33;1010.19;;;1.39;71.37
54144;BME280;40050;47.324;18.792;2022-12-29T00:41:36;1010.14;;;1.38;71.41
54144;BME280;40050;47.324;18.792;2022-12-29T00:43:38;1010.10;;;1.37;71.50
54144;BME280;40050;47.324;18.792;2022-12-29T00:45:41;1010.10;;;1.36;71.91
54144;BME280;40050;47.324;18.792;2022-12-29T00:47:43;1010.20;;;1.38;72.20
54144;BME280;40050;47.324;18.792;2022-12-29T00:49:46;1010.22;;;1.37;72.21
54144;BME280;40050;47.324;18.792;2022-12-29T00:51:48;1010.27;;;1.36;72.34
54144;BME280;40050;47.324;18.792;2022-12-29T00:53:51;1010.34;;;1.35;72.39
54144;BME280;40050;47.324;18.792;2022-12-29T00:55:53;1010.25;;;1.32;72.31
54144;BME280;40050;47.324;18.792;2022-12-29T00:57:55;1010.19;;;1.32;72.28
54144;BME280;40050;47.324;18.792;2022-12-29T00:59:58;1010.26;;;1.35;72.36
54144;BME280;40050;47.324;18.792;2022-12-29T01:02:00;1010.26;;;1.33;72.38
54144;BME280;40050;47.324;18.792;2022-12-29T01:04:03;1010.23;;;1.35;72.31
54144;BME280;40050;47.324;18.792;2022-12-29T01:06:07;1010.16;;;1.34;72.38
54144;BME280;40050;47.324;18.792;2022-12-29T01:08:09;1010.22;;;1.39;72.50
54144;BME280;40050;47.324;18.792;2022-12-29T01:10:12;1010.19;;;1.40;72.68
54144;BME280;40050;47.324;18.792;2022-12-29T01:12:14;1010.05;;;1.29;72.89
54144;BME280;40050;47.324;18.792;2022-12-29T01:14:17;1010.23;;;1.40;73.14
54144;BME280;40050;47.324;18.792;2022-12-29T01:16:19;1010.20;;;1.40;73.24
54144;BME280;40050;47.324;18.792;2022-12-29T01:18:22;1010.16;;;1.40;73.26
54144;BME280;40050;47.324;18.792;2022-12-29T01:20:25;1010.18;;;1.39;73.48
54144;BME280;40050;47.324;18.792;2022-12-29T01:22:27;1010.15;;;1.38;73.59
54144;BME280;40050;47.324;18.792;2022-12-29T01:24:29;1010.03;;;1.31;73.68
54144;BME280;40050;47.324;18.792;2022-12-29T01:26:32;1010.18;;;1.39;73.77
54144;BME280;40050;47.324;18.792;2022-12-29T01:28:34;1010.22;;;1.40;73.74
54144;BME280;40050;47.324;18.792;2022-12-29T01:30:37;1010.22;;;1.40;73.64
54144;BME280;40050;47.324;18.792;2022-12-29T01:32:39;1010.21;;;1.39;73.49
54144;BME280;40050;47.324;18.792;2022-12-29T01:34:41;1010.18;;;1.43;73.32
54144;BME280;40050;47.324;18.792;2022-12-29T01:36:44;1010.14;;;1.43;73.28
54144;BME280;40050;47.324;18.792;2022-12-29T01:38:46;1010.07;;;1.39;73.27
54144;BME280;40050;47.324;18.792;2022-12-29T01:40:48;1010.12;;;1.43;73.42
54144;BME280;40050;47.324;18.792;2022-12-29T01:42:51;1009.84;;;1.27;73.52
54144;BME280;40050;47.324;18.792;2022-12-29T01:44:56;1009.80;;;1.25;73.56
54144;BME280;40050;47.324;18.792;2022-12-29T01:46:59;1010.14;;;1.42;73.69
54144;BME280;40050;47.324;18.792;2022-12-29T01:49:11;1010.12;;;1.40;73.71
54144;BME280;40050;47.324;18.792;2022-12-29T01:51:15;1010.12;;;1.42;73.64
54144;BME280;40050;47.324;18.792;2022-12-29T01:53:28;1010.09;;;1.39;73.66
54144;BME280;40050;47.324;18.792;2022-12-29T01:55:34;1010.08;;;1.38;73.71
54144;BME280;40050;47.324;18.792;2022-12-29T01:57:40;1010.11;;;1.43;73.77
54144;BME280;40050;47.324;18.792;2022-12-29T02:00:07;1010.10;;;1.42;73.72
54144;BME280;40050;47.324;18.792;2022-12-29T02:01:59;1009.99;;;1.39;73.68
54144;BME280;40050;47.324;18.792;2022-12-29T02:04:02;1009.96;;;1.40;73.72
54144;BME280;40050;47.324;18.792;2022-12-29T02:06:12;1009.96;;;1.41;73.76
54144;BME280;40050;47.324;18.792;2022-12-29T02:08:16;1009.92;;;1.44;73.84
54144;BME280;40050;47.324;18.792;2022-12-29T02:10:20;1009.87;;;1.40;73.90
54144;BME280;40050;47.324;18.792;2022-12-29T02:12:23;1009.80;;;1.39;73.96
54144;BME280;40050;47.324;18.792;2022-12-29T02:14:25;1009.79;;;1.39;74.00
54144;BME280;40050;47.324;18.792;2022-12-29T02:16:44;1009.77;;;1.38;74.00
54144;BME280;40050;47.324;18.792;2022-12-29T02:19:04;1009.90;;;1.43;73.96
54144;BME280;40050;47.324;18.792;2022-12-29T02:23:48;1009.79;;;1.41;74.06
54144;BME280;40050;47.324;18.792;2022-12-29T02:25:58;1009.81;;;1.44;74.11
54144;BME280;40050;47.324;18.792;2022-12-29T02:28:22;1009.76;;;1.41;74.25
54144;BME280;40050;47.324;18.792;2022-12-29T02:30:36;1009.69;;;1.37;74.43
54144;BME280;40050;47.324;18.792;2022-12-29T02:35:13;1009.61;;;1.34;74.49
54144;BME280;40050;47.324;18.792;2022-12-29T02:37:43;1009.59;;;1.35;74.49
54144;BME280;40050;47.324;18.792;2022-12-29T02:42:22;1009.54;;;1.37;74.60
54144;BME280;40050;47.324;18.792;2022-12-29T02:46:47;1009.41;;;1.35;74.68
54144;BME280;40050;47.324;18.792;2022-12-29T02:49:05;1009.44;;;1.38;74.65
54144;BME280;40050;47.324;18.792;2022-12-29T02:51:10;1009.39;;;1.38;74.67
54144;BME280;40050;47.324;18.792;2022-12-29T02:53:15;1009.39;;;1.38;74.64
54144;BME280;40050;47.324;18.792;2022-12-29T02:55:19;1009.41;;;1.39;74.64
54144;BME280;40050;47.324;18.792;2022-12-29T02:57:33;1009.47;;;1.42;74.59
54144;BME280;40050;47.324;18.792;2022-12-29T02:59:36;1009.34;;;1.41;74.34
54144;BME280;40050;47.324;18.792;2022-12-29T03:04:03;1009.40;;;1.42;74.49
54144;BME280;40050;47.324;18.792;2022-12-29T03:06:21;1009.13;;;1.21;74.58
54144;BME280;40050;47.324;18.792;2022-12-29T03:10:50;1009.56;;;1.39;74.64
54144;BME280;40050;47.324;18.792;2022-12-29T03:15:29;1009.44;;;1.40;74.56
54144;BME280;40050;47.324;18.792;2022-12-29T03:19:50;1009.41;;;1.39;74.47
54144;BME280;40050;47.324;18.792;2022-12-29T03:21:54;1009.34;;;1.37;74.45
54144;BME280;40050;47.324;18.792;2022-12-29T03:23:58;1009.30;;;1.36;74.48
54144;BME280;40050;47.324;18.792;2022-12-29T03:26:01;1009.25;;;1.38;74.55
54144;BME280;40050;47.324;18.792;2022-12-29T03:28:06;1009.31;;;1.40;74.68
54144;BME280;40050;47.324;18.792;2022-12-29T03:30:10;1009.27;;;1.43;74.63
54144;BME280;40050;47.324;18.792;2022-12-29T03:32:13;1009.24;;;1.38;74.59
54144;BME280;40050;47.324;18.792;2022-12-29T03:34:17;1009.27;;;1.39;74.67
54144;BME280;40050;47.324;18.792;2022-12-29T03:36:23;1009.24;;;1.35;74.75
54144;BME280;40050;47.324;18.792;2022-12-29T03:38:35;1009.23;;;1.33;74.77
54144;BME280;40050;47.324;18.792;2022-12-29T03:40:41;1009.15;;;1.31;74.82
54144;BME280;40050;47.324;18.792;2022-12-29T03:42:44;1009.14;;;1.31;74.82
54144;BME280;40050;47.324;18.792;2022-12-29T03:44:47;1009.03;;;1.28;74.69
54144;BME280;40050;47.324;18.792;2022-12-29T03:46:49;1009.20;;;1.35;74.49
54144;BME280;40050;47.324;18.792;2022-12-29T03:48:52;1009.18;;;1.33;74.38
54144;BME280;40050;47.324;18.792;2022-12-29T03:50:54;1009.08;;;1.30;74.45
54144;BME280;40050;47.324;18.792;2022-12-29T03:52:56;1009.14;;;1.31;74.26
54144;BME280;40050;47.324;18.792;2022-12-29T03:54:59;1009.06;;;1.22;74.32
54144;BME280;40050;47.324;18.792;2022-12-29T03:57:01;1009.21;;;1.31;74.43
54144;BME280;40050;47.324;18.792;2022-12-29T03:59:03;1009.32;;;1.30;74.39
54144;BME280;40050;47.324;18.792;2022-12-29T04:01:06;1009.27;;;1.30;74.24
54144;BME280;40050;47.324;18.792;2022-12-29T04:03:08;1009.29;;;1.30;74.02
54144;BME280;40050;47.324;18.792;2022-12-29T04:05:11;1009.21;;;1.27;73.97
54144;BME280;40050;47.324;18.792;2022-12-29T04:07:13;1009.18;;;1.29;74.05
54144;BME280;40050;47.324;18.792;2022-12-29T04:09:15;1009.15;;;1.25;74.17
54144;BME280;40050;47.324;18.792;2022-12-29T04:11:18;1009.18;;;1.24;74.22
54144;BME280;40050;47.324;18.792;2022-12-29T04:13:20;1009.30;;;1.28;74.13
54144;BME280;40050;47.324;18.792;2022-12-29T04:15:22;1009.19;;;1.26;74.20
54144;BME280;40050;47.324;18.792;2022-12-29T04:17:25;1009.23;;;1.23;74.38
54144;BME280;40050;47.324;18.792;2022-12-29T04:19:27;1009.18;;;1.20;74.45
54144;BME280;40050;47.324;18.792;2022-12-29T04:21:29;1009.27;;;1.23;74.49
54144;BME280;40050;47.324;18.792;2022-12-29T04:23:33;1009.21;;;1.18;74.63
54144;BME280;40050;47.324;18.792;2022-12-29T04:25:36;1009.25;;;1.19;74.74
54144;BME280;40050;47.324;18.792;2022-12-29T04:27:38;1009.23;;;1.14;74.85
54144;BME280;40050;47.324;18.792;2022-12-29T04:29:41;1009.25;;;1.19;74.85
54144;BME280;40050;47.324;18.792;2022-12-29T04:31:43;1009.32;;;1.16;74.93
54144;BME280;40050;47.324;18.792;2022-12-29T04:33:45;1009.35;;;1.13;75.10
54144;BME280;40050;47.324;18.792;2022-12-29T04:35:48;1009.33;;;1.13;75.17
54144;BME280;40050;47.324;18.792;2022-12-29T04:37:50;1009.23;;;1.15;74.99
54144;BME280;40050;47.324;18.792;2022-12-29T04:39:53;1009.28;;;1.15;74.83
54144;BME280;40050;47.324;18.792;2022-12-29T04:41:55;1009.17;;;1.08;74.86
54144;BME280;40050;47.324;18.792;2022-12-29T04:43:57;1009.26;;;1.14;74.91
54144;BME280;40050;47.324;18.792;2022-12-29T04:46:00;1009.28;;;1.16;74.97
54144;BME280;40050;47.324;18.792;2022-12-29T04:48:02;1009.34;;;1.15;75.11
54144;BME280;40050;47.324;18.792;2022-12-29T04:50:05;1009.31;;;1.16;75.10
54144;BME280;40050;47.324;18.792;2022-12-29T04:52:07;1009.28;;;1.16;75.11
54144;BME280;40050;47.324;18.792;2022-12-29T04:54:10;1009.20;;;1.12;75.08
54144;BME280;40050;47.324;18.792;2022-12-29T04:56:12;1009.26;;;1.15;75.10
54144;BME280;40050;47.324;18.792;2022-12-29T04:58:14;1009.30;;;1.15;75.17
54144;BME280;40050;47.324;18.792;2022-12-29T05:00:17;1009.19;;;1.09;75.19
54144;BME280;40050;47.324;18.792;2022-12-29T05:02:20;1009.22;;;1.12;75.14
54144;BME280;40050;47.324;18.792;2022-12-29T05:04:22;1009.22;;;1.11;75.20
54144;BME280;40050;47.324;18.792;2022-12-29T05:06:24;1009.20;;;1.07;75.23
54144;BME280;40050;47.324;18.792;2022-12-29T05:08:27;1009.18;;;1.09;75.25
54144;BME280;40050;47.324;18.792;2022-12-29T05:10:29;1009.18;;;1.10;75.23
54144;BME280;40050;47.324;18.792;2022-12-29T05:12:32;1009.17;;;1.06;75.37
54144;BME280;40050;47.324;18.792;2022-12-29T05:14:35;1009.07;;;0.98;75.52
54144;BME280;40050;47.324;18.792;2022-12-29T05:16:37;1009.03;;;0.99;75.59
54144;BME280;40050;47.324;18.792;2022-12-29T05:18:39;1009.04;;;1.00;75.67
54144;BME280;40050;47.324;18.792;2022-12-29T05:20:42;1009.08;;;1.01;75.71
54144;BME280;40050;47.324;18.792;2022-12-29T05:22:44;1009.09;;;1.02;75.69
54144;BME280;40050;47.324;18.792;2022-12-29T05:24:46;1009.12;;;1.03;75.68
54144;BME280;40050;47.324;18.792;2022-12-29T05:26:49;1009.15;;;1.04;75.64
54144;BME280;40050;47.324;18.792;2022-12-29T05:28:51;1009.12;;;1.03;75.61
54144;BME280;40050;47.324;18.792;2022-12-29T05:30:53;1009.13;;;1.03;75.58
54144;BME280;40050;47.324;18.792;2022-12-29T05:32:56;1009.18;;;1.08;75.59
54144;BME280;40050;47.324;18.792;2022-12-29T05:34:58;1009.11;;;1.09;75.48
54144;BME280;40050;47.324;18.792;2022-12-29T05:37:00;1009.07;;;1.10;75.43
54144;BME280;40050;47.324;18.792;2022-12-29T05:39:03;1009.01;;;1.10;75.41
54144;BME280;40050;47.324;18.792;2022-12-29T05:41:05;1009.01;;;1.11;75.37
54144;BME280;40050;47.324;18.792;2022-12-29T05:43:08;1009.05;;;1.14;75.29
54144;BME280;40050;47.324;18.792;2022-12-29T05:45:10;1009.08;;;1.12;75.19
54144;BME280;40050;47.324;18.792;2022-12-29T05:47:12;1009.11;;;1.17;75.12
54144;BME280;40050;47.324;18.792;2022-12-29T05:49:15;1009.01;;;1.11;75.15
54144;BME280;40050;47.324;18.792;2022-12-29T05:51:17;1009.10;;;1.15;75.20
54144;BME280;40050;47.324;18.792;2022-12-29T05:53:20;1009.13;;;1.16;75.14
54144;BME280;40050;47.324;18.792;2022-12-29T05:55:22;1009.05;;;1.16;75.16
54144;BME280;40050;47.324;18.792;2022-12-29T05:57:25;1008.96;;;1.17;75.13
54144;BME280;40050;47.324;18.792;2022-12-29T05:59:27;1008.97;;;1.19;75.18
54144;BME280;40050;47.324;18.792;2022-12-29T06:01:29;1008.94;;;1.15;75.15
54144;BME280;40050;47.324;18.792;2022-12-29T06:03:32;1009.02;;;1.14;75.17
54144;BME280;40050;47.324;18.792;2022-12-29T06:05:34;1009.01;;;1.15;75.14
54144;BME280;40050;47.324;18.792;2022-12-29T06:07:36;1008.85;;;1.08;75.08
54144;BME280;40050;47.324;18.792;2022-12-29T06:09:39;1008.98;;;1.13;75.05
54144;BME280;40050;47.324;18.792;2022-12-29T06:11:41;1008.89;;;1.11;75.06
54144;BME280;40050;47.324;18.792;2022-12-29T06:13:43;1008.86;;;1.11;75.02
54144;BME280;40050;47.324;18.792;2022-12-29T06:15:47;1008.99;;;1.16;74.99
54144;BME280;40050;47.324;18.792;2022-12-29T06:17:50;1008.96;;;1.14;75.08
54144;BME280;40050;47.324;18.792;2022-12-29T06:19:53;1008.95;;;1.14;75.02
54144;BME280;40050;47.324;18.792;2022-12-29T06:21:55;1009.02;;;1.17;74.92
54144;BME280;40050;47.324;18.792;2022-12-29T06:23:57;1008.96;;;1.14;74.90
54144;BME280;40050;47.324;18.792;2022-12-29T06:26:00;1009.10;;;1.21;74.78
54144;BME280;40050;47.324;18.792;2022-12-29T06:28:02;1009.17;;;1.21;74.66
54144;BME280;40050;47.324;18.792;2022-12-29T06:30:05;1009.11;;;1.17;74.64
54144;BME280;40050;47.324;18.792;2022-12-29T06:32:07;1009.20;;;1.20;74.77
54144;BME280;40050;47.324;18.792;2022-12-29T06:34:09;1009.18;;;1.19;74.83
54144;BME280;40050;47.324;18.792;2022-12-29T06:36:12;1009.17;;;1.22;74.86
54144;BME280;40050;47.324;18.792;2022-12-29T06:38:14;1009.19;;;1.21;74.88
54144;BME280;40050;47.324;18.792;2022-12-29T06:40:17;1009.22;;;1.21;74.90
54144;BME280;40050;47.324;18.792;2022-12-29T06:42:19;1009.20;;;1.21;74.91
54144;BME280;40050;47.324;18.792;2022-12-29T06:44:21;1009.21;;;1.22;74.94
54144;BME280;40050;47.324;18.792;2022-12-29T06:46:24;1009.24;;;1.19;74.96
54144;BME280;40050;47.324;18.792;2022-12-29T06:48:26;1009.26;;;1.15;75.03
54144;BME280;40050;47.324;18.792;2022-12-29T06:50:29;1009.23;;;1.18;75.09
54144;BME280;40050;47.324;18.792;2022-12-29T06:52:31;1009.34;;;1.22;75.13
54144;BME280;40050;47.324;18.792;2022-12-29T06:54:33;1009.26;;;1.18;75.17
54144;BME280;40050;47.324;18.792;2022-12-29T06:56:36;1009.35;;;1.23;75.21
54144;BME280;40050;47.324;18.792;2022-12-29T06:58:38;1009.40;;;1.23;75.23
54144;BME280;40050;47.324;18.792;2022-12-29T07:00:40;1009.41;;;1.24;75.25
54144;BME280;40050;47.324;18.792;2022-12-29T07:02:43;1009.41;;;1.28;75.26
54144;BME280;40050;47.324;18.792;2022-12-29T07:04:45;1009.38;;;1.26;75.36
54144;BME280;40050;47.324;18.792;2022-12-29T07:06:47;1009.41;;;1.27;75.44
54144;BME280;40050;47.324;18.792;2022-12-29T07:08:50;1009.41;;;1.27;75.47
54144;BME280;40050;47.324;18.792;2022-12-29T07:10:52;1009.42;;;1.25;75.52
54144;BME280;40050;47.324;18.792;2022-12-29T07:12:54;1009.48;;;1.29;75.62
54144;BME280;40050;47.324;18.792;2022-12-29T07:14:57;1009.52;;;1.29;75.70
54144;BME280;40050;47.324;18.792;2022-12-29T07:16:59;1009.48;;;1.31;75.75
54144;BME280;40050;47.324;18.792;2022-12-29T07:19:01;1009.45;;;1.35;75.78
54144;BME280;40050;47.324;18.792;2022-12-29T07:21:04;1009.53;;;1.36;75.81
54144;BME280;40050;47.324;18.792;2022-12-29T07:23:06;1009.49;;;1.35;75.85
54144;BME280;40050;47.324;18.792;2022-12-29T07:25:09;1009.51;;;1.40;75.84
54144;BME280;40050;47.324;18.792;2022-12-29T07:27:11;1009.50;;;1.44;75.81
54144;BME280;40050;47.324;18.792;2022-12-29T07:29:14;1009.53;;;1.47;75.82
54144;BME280;40050;47.324;18.792;2022-12-29T07:31:17;1009.44;;;1.44;75.91
54144;BME280;40050;47.324;18.792;2022-12-29T07:33:20;1009.40;;;1.47;75.97
54144;BME280;40050;47.324;18.792;2022-12-29T07:35:22;1009.40;;;1.50;75.97
54144;BME280;40050;47.324;18.792;2022-12-29T07:37:25;1009.37;;;1.50;76.08
54144;BME280;40050;47.324;18.792;2022-12-29T07:39:27;1009.39;;;1.50;76.20
54144;BME280;40050;47.324;18.792;2022-12-29T07:41:29;1009.38;;;1.52;76.24
54144;BME280;40050;47.324;18.792;2022-12-29T07:43:32;1009.41;;;1.58;76.38
54144;BME280;40050;47.324;18.792;2022-12-29T07:45:34;1009.33;;;1.63;76.37
54144;BME280;40050;47.324;18.792;2022-12-29T07:47:36;1009.38;;;1.69;76.34
54144;BME280;40050;47.324;18.792;2022-12-29T07:49:39;1009.39;;;1.73;76.46
54144;BME280;40050;47.324;18.792;2022-12-29T07:51:41;1009.49;;;1.79;76.39
54144;BME280;40050;47.324;18.792;2022-12-29T07:53:43;1009.47;;;1.82;76.48
54144;BME280;40050;47.324;18.792;2022-12-29T07:55:46;1009.40;;;1.85;76.60
54144;BME280;40050;47.324;18.792;2022-12-29T07:57:48;1009.36;;;1.97;76.47
54144;BME280;40050;47.324;18.792;2022-12-29T07:59:50;1009.40;;;2.06;76.32
54144;BME280;40050;47.324;18.792;2022-12-29T08:01:53;1009.41;;;2.08;76.21
54144;BME280;40050;47.324;18.792;2022-12-29T08:03:55;1009.40;;;2.14;75.97
54144;BME280;40050;47.324;18.792;2022-12-29T08:05:57;1009.35;;;2.12;75.86
54144;BME280;40050;47.324;18.792;2022-12-29T08:08:00;1009.39;;;2.14;75.69
54144;BME280;40050;47.324;18.792;2022-12-29T08:10:02;1009.41;;;2.18;75.57
54144;BME280;40050;47.324;18.792;2022-12-29T08:12:05;1009.41;;;2.22;75.41
54144;BME280;40050;47.324;18.792;2022-12-29T08:14:07;1009.38;;;2.21;75.28
54144;BME280;40050;47.324;18.792;2022-12-29T08:16:10;1009.31;;;2.24;75.32
54144;BME280;40050;47.324;18.792;2022-12-29T08:18:12;1009.31;;;2.26;75.28
54144;BME280;40050;47.324;18.792;2022-12-29T08:20:14;1009.33;;;2.27;75.07
54144;BME280;40050;47.324;18.792;2022-12-29T08:22:17;1009.29;;;2.28;74.98
54144;BME280;40050;47.324;18.792;2022-12-29T08:24:19;1009.31;;;2.30;75.05
54144;BME280;40050;47.324;18.792;2022-12-29T08:26:22;1009.24;;;2.32;75.13
54144;BME280;40050;47.324;18.792;2022-12-29T08:28:24;1009.29;;;2.37;75.01
54144;BME280;40050;47.324;18.792;2022-12-29T08:30:27;1009.32;;;2.41;74.92
54144;BME280;40050;47.324;18.792;2022-12-29T08:32:29;1009.29;;;2.39;75.04
54144;BME280;40050;47.324;18.792;2022-12-29T08:34:32;1009.24;;;2.41;75.05
54144;BME280;40050;47.324;18.792;2022-12-29T08:36:34;1009.23;;;2.46;74.92
54144;BME280;40050;47.324;18.792;2022-12-29T08:38:37;1009.18;;;2.44;75.07
54144;BME280;40050;47.324;18.792;2022-12-29T08:40:39;1009.19;;;2.43;75.04
54144;BME280;40050;47.324;18.792;2022-12-29T08:42:41;1009.15;;;2.45;75.14
54144;BME280;40050;47.324;18.792;2022-12-29T08:44:44;1008.97;;;2.36;75.15
54144;BME280;40050;47.324;18.792;2022-12-29T08:46:46;1008.95;;;2.43;75.37
54144;BME280;40050;47.324;18.792;2022-12-29T08:48:48;1009.15;;;2.63;75.80
54144;BME280;40050;47.324;18.792;2022-12-29T08:50:51;1009.07;;;2.82;75.67
54144;BME280;40050;47.324;18.792;2022-12-29T08:52:53;1009.10;;;2.94;75.58
54144;BME280;40050;47.324;18.792;2022-12-29T08:54:56;1009.13;;;3.11;75.59
54144;BME280;40050;47.324;18.792;2022-12-29T08:56:59;1009.19;;;3.18;75.07
54144;BME280;40050;47.324;18.792;2022-12-29T08:59:01;1009.12;;;3.35;75.08
54144;BME280;40050;47.324;18.792;2022-12-29T09:01:03;1009.17;;;3.48;74.87
54144;BME280;40050;47.324;18.792;2022-12-29T09:03:06;1009.08;;;3.64;74.59
54144;BME280;40050;47.324;18.792;2022-12-29T09:05:08;1009.15;;;3.82;74.40
54144;BME280;40050;47.324;18.792;2022-12-29T09:07:11;1009.08;;;3.95;73.71
54144;BME280;40050;47.324;18.792;2022-12-29T09:09:13;1009.08;;;3.97;72.76
54144;BME280;40050;47.324;18.792;2022-12-29T09:11:17;1009.09;;;4.00;72.54
54144;BME280;40050;47.324;18.792;2022-12-29T09:13:20;1009.01;;;4.01;72.08
54144;BME280;40050;47.324;18.792;2022-12-29T09:15:22;1009.06;;;3.97;71.74
54144;BME280;40050;47.324;18.792;2022-12-29T09:17:25;1008.95;;;3.92;71.22
54144;BME280;40050;47.324;18.792;2022-12-29T09:19:27;1009.05;;;3.88;71.12
54144;BME280;40050;47.324;18.792;2022-12-29T09:21:30;1009.02;;;3.83;71.04
54144;BME280;40050;47.324;18.792;2022-12-29T09:23:33;1009.01;;;3.80;71.05
54144;BME280;40050;47.324;18.792;2022-12-29T09:25:35;1009.07;;;3.83;70.92
54144;BME280;40050;47.324;18.792;2022-12-29T09:27:38;1009.07;;;3.81;71.08
54144;BME280;40050;47.324;18.792;2022-12-29T09:29:40;1009.04;;;3.84;71.11
54144;BME280;40050;47.324;18.792;2022-12-29T09:31:42;1008.93;;;3.79;71.07
54144;BME280;40050;47.324;18.792;2022-12-29T09:33:45;1008.88;;;3.92;71.41
54144;BME280;40050;47.324;18.792;2022-12-29T09:35:57;1008.94;;;4.06;71.48
54144;BME280;40050;47.324;18.792;2022-12-29T09:38:00;1008.91;;;4.16;71.47
54144;BME280;40050;47.324;18.792;2022-12-29T09:40:02;1008.88;;;4.26;71.17
54144;BME280;40050;47.324;18.792;2022-12-29T09:42:06;1008.78;;;4.36;71.12
54144;BME280;40050;47.324;18.792;2022-12-29T09:44:25;1008.81;;;4.49;71.04
54144;BME280;40050;47.324;18.792;2022-12-29T09:46:34;1008.69;;;4.50;69.76
54144;BME280;40050;47.324;18.792;2022-12-29T09:48:38;1008.66;;;4.58;70.27
54144;BME280;40050;47.324;18.792;2022-12-29T09:50:43;1008.70;;;4.73;70.25
54144;BME280;40050;47.324;18.792;2022-12-29T09:52:58;1008.70;;;4.79;69.59
54144;BME280;40050;47.324;18.792;2022-12-29T09:55:10;1008.50;;;4.77;69.69
54144;BME280;40050;47.324;18.792;2022-12-29T09:57:16;1008.64;;;4.96;69.20
54144;BME280;40050;47.324;18.792;2022-12-29T09:59:20;1008.54;;;4.99;68.64
54144;BME280;40050;47.324;18.792;2022-12-29T10:01:36;1008.54;;;4.99;68.77
54144;BME280;40050;47.324;18.792;2022-12-29T10:03:50;1008.43;;;5.04;68.99
54144;BME280;40050;47.324;18.792;2022-12-29T10:06:26;1008.41;;;5.14;68.93
54144;BME280;40050;47.324;18.792;2022-12-29T10:08:20;1008.41;;;5.32;68.98
54144;BME280;40050;47.324;18.792;2022-12-29T10:19:47;1008.50;;;5.91;67.89
54144;BME280;40050;47.324;18.792;2022-12-29T10:21:55;1008.61;;;6.14;67.65
54144;BME280;40050;47.324;18.792;2022-12-29T10:24:02;1008.30;;;6.09;66.85
54144;BME280;40050;47.324;18.792;2022-12-29T10:26:14;1008.46;;;6.36;66.58
54144;BME280;40050;47.324;18.792;2022-12-29T10:28:20;1008.41;;;6.38;65.90
54144;BME280;40050;47.324;18.792;2022-12-29T10:30:23;1008.35;;;6.48;65.61
54144;BME280;40050;47.324;18.792;2022-12-29T10:34:50;1008.26;;;6.50;65.18
54144;BME280;40050;47.324;18.792;2022-12-29T10:37:11;1008.27;;;6.50;65.22
54144;BME280;40050;47.324;18.792;2022-12-29T10:39:30;1008.33;;;6.57;64.96
54144;BME280;40050;47.324;18.792;2022-12-29T10:41:36;1008.45;;;6.70;65.29
54144;BME280;40050;47.324;18.792;2022-12-29T10:44:14;1008.46;;;6.82;65.14
54144;BME280;40050;47.324;18.792;2022-12-29T10:46:04;1008.36;;;6.91;64.75
54144;BME280;40050;47.324;18.792;2022-12-29T10:48:18;1008.28;;;7.00;64.02
54144;BME280;40050;47.324;18.792;2022-12-29T10:50:22;1008.24;;;7.05;63.74
54144;BME280;40050;47.324;18.792;2022-12-29T10:52:24;1008.23;;;7.00;63.06
54144;BME280;40050;47.324;18.792;2022-12-29T10:56:52;1008.14;;;7.04;63.34
54144;BME280;40050;47.324;18.792;2022-12-29T10:58:56;1008.13;;;7.07;63.46
54144;BME280;40050;47.324;18.792;2022-12-29T11:01:00;1008.07;;;7.15;63.66
54144;BME280;40050;47.324;18.792;2022-12-29T11:03:07;1008.09;;;7.25;63.55
54144;BME280;40050;47.324;18.792;2022-12-29T11:05:18;1007.84;;;7.12;63.18
54144;BME280;40050;47.324;18.792;2022-12-29T11:07:23;1008.11;;;7.32;63.34
54144;BME280;40050;47.324;18.792;2022-12-29T11:09:29;1008.04;;;7.35;62.98
54144;BME280;40050;47.324;18.792;2022-12-29T11:11:33;1008.09;;;7.37;62.83
54144;BME280;40050;47.324;18.792;2022-12-29T11:13:49;1008.12;;;7.41;62.85
54144;BME280;40050;47.324;18.792;2022-12-29T11:15:52;1008.06;;;7.43;62.79
54144;BME280;40050;47.324;18.792;2022-12-29T11:17:57;1008.08;;;7.54;62.66
54144;BME280;40050;47.324;18.792;2022-12-29T11:19:59;1008.08;;;7.59;62.61
54144;BME280;40050;47.324;18.792;2022-12-29T11:22:27;1008.08;;;7.64;62.27
54144;BME280;40050;47.324;18.792;2022-12-29T11:24:30;1008.01;;;7.69;62.01
54144;BME280;40050;47.324;18.792;2022-12-29T11:26:32;1007.98;;;7.65;61.65
54144;BME280;40050;47.324;18.792;2022-12-29T11:28:35;1007.89;;;7.60;61.50
54144;BME280;40050;47.324;18.792;2022-12-29T11:30:38;1007.84;;;7.51;61.63
54144;BME280;40050;47.324;18.792;2022-12-29T11:32:42;1007.85;;;7.49;61.97
54144;BME280;40050;47.324;18.792;2022-12-29T11:34:52;1007.84;;;7.48;62.10
54144;BME280;40050;47.324;18.792;2022-12-29T11:36:57;1007.82;;;7.50;62.12
54144;BME280;40050;47.324;18.792;2022-12-29T11:39:02;1007.78;;;7.50;61.83